Time;durP1;ratioP1;P1;durP2;ratioP2;P2;SDS_P1;SDS_P2;PMS_P1;PMS_P2;Temp;Humidity;BMP_temperature;BMP_pressure;BME280_temperature;BME280_humidity;BME280_pressure;Samples;Min_cycle;Max_cycle;Signal;HPM_P1;HPM_P2
2024/02/23 00:00:18;;;;;;;0.43;0.17;;;7.10;1.00;;;;;;7375172;19;20018;-71
2024/02/23 00:02:48;;;;;;;2.10;0.65;;;7.10;1.00;;;;;;7374984;19;20072;-73
2024/02/23 00:05:19;;;;;;;0.65;0.20;;;7.10;1.00;;;;;;7368087;19;20014;-70
2024/02/23 00:07:51;;;;;;;2.50;0.57;;;7.10;1.00;;;;;;7374877;19;20015;-72
2024/02/23 00:10:21;;;;;;;0.85;0.25;;;7.10;1.00;;;;;;7369301;19;20010;-72
2024/02/23 00:12:51;;;;;;;0.90;0.30;;;7.10;1.00;;;;;;7370501;19;20028;-71
2024/02/23 00:15:24;;;;;;;1.00;0.30;;;7.10;1.00;;;;;;7371951;19;20069;-72
2024/02/23 00:17:54;;;;;;;0.80;0.30;;;7.10;1.00;;;;;;7374632;19;20014;-72
2024/02/23 00:20:24;;;;;;;1.48;0.40;;;7.00;1.00;;;;;;7373221;19;20018;-72
2024/02/23 00:22:57;;;;;;;0.77;0.40;;;7.00;1.00;;;;;;7370874;19;20020;-71
2024/02/23 00:25:27;;;;;;;1.23;0.47;;;6.90;1.00;;;;;;7369353;19;20014;-72
2024/02/23 00:27:57;;;;;;;4.32;0.80;;;7.00;1.00;;;;;;7372493;19;20074;-73
2024/02/23 00:30:27;;;;;;;1.10;0.55;;;7.00;1.00;;;;;;7372515;19;20017;-71
2024/02/23 00:32:57;;;;;;;4.50;0.77;;;7.00;1.00;;;;;;7370044;19;20006;-72
2024/02/23 00:35:27;;;;;;;2.53;0.50;;;7.00;1.00;;;;;;7368581;19;20026;-72
2024/02/23 00:38:00;;;;;;;2.78;0.80;;;7.00;1.00;;;;;;7371479;19;20065;-72
2024/02/23 00:40:30;;;;;;;2.78;0.55;;;7.10;1.00;;;;;;7373031;19;20011;-70
2024/02/23 00:43:01;;;;;;;3.35;0.60;;;7.00;1.00;;;;;;7370839;19;20011;-71
2024/02/23 00:45:31;;;;;;;2.45;0.70;;;7.00;1.00;;;;;;7368996;19;20020;-71
2024/02/23 00:48:02;;;;;;;3.60;0.77;;;7.00;1.00;;;;;;7369820;19;20023;-71
2024/02/23 00:50:32;;;;;;;4.45;0.90;;;7.00;1.00;;;;;;7371941;19;20031;-71
2024/02/23 00:53:04;;;;;;;5.18;1.05;;;7.00;1.00;;;;;;7370033;19;20014;-71
2024/02/23 00:55:35;;;;;;;3.20;0.57;;;7.00;1.00;;;;;;7369242;19;20029;-71
2024/02/23 00:58:05;;;;;;;3.58;0.90;;;7.00;1.00;;;;;;7371837;19;20036;-71
2024/02/23 01:00:35;;;;;;;5.22;1.02;;;7.00;1.00;;;;;;7371161;19;20487;-71
2024/02/23 01:03:06;;;;;;;4.15;0.82;;;6.90;1.00;;;;;;7372475;19;20006;-71
2024/02/23 01:05:37;;;;;;;4.65;0.90;;;6.90;1.00;;;;;;7366768;19;20027;-71
2024/02/23 01:08:10;;;;;;;6.97;1.33;;;6.90;1.00;;;;;;7369345;19;20414;-71
2024/02/23 01:10:40;;;;;;;2.38;0.85;;;6.90;1.00;;;;;;7369006;19;20003;-71
2024/02/23 01:13:10;;;;;;;3.00;0.57;;;6.90;1.00;;;;;;7368546;19;20014;-71
2024/02/23 01:15:40;;;;;;;3.42;0.80;;;6.80;1.00;;;;;;7366738;19;20010;-71
2024/02/23 01:18:10;;;;;;;3.15;0.88;;;6.90;1.00;;;;;;7371306;19;20022;-72
2024/02/23 01:20:40;;;;;;;5.82;0.90;;;6.90;1.00;;;;;;7368957;19;20010;-71
2024/02/23 01:23:13;;;;;;;4.43;0.80;;;6.90;1.00;;;;;;7368517;19;20010;-71
2024/02/23 01:25:43;;;;;;;3.45;0.70;;;6.90;1.00;;;;;;7366954;19;20040;-71
2024/02/23 01:28:13;;;;;;;2.67;0.60;;;6.80;1.00;;;;;;7371615;19;20459;-71
2024/02/23 01:30:43;;;;;;;3.22;0.65;;;6.90;1.00;;;;;;7370069;19;20489;-71
2024/02/23 01:33:14;;;;;;;2.22;1.02;;;6.90;1.00;;;;;;7370300;19;20014;-71
2024/02/23 01:35:44;;;;;;;1.67;0.60;;;6.90;1.00;;;;;;7368912;19;20014;-71
2024/02/23 01:38:20;;;;;;;3.45;1.15;;;6.80;1.00;;;;;;7369859;19;20014;-71
2024/02/23 01:40:50;;;;;;;2.83;0.57;;;6.90;1.00;;;;;;7370232;19;20027;-71
2024/02/23 01:43:20;;;;;;;2.95;0.73;;;6.90;1.00;;;;;;7368600;19;20090;-71
2024/02/23 01:45:51;;;;;;;1.58;0.50;;;6.80;1.00;;;;;;7364090;19;20032;-71
2024/02/23 01:48:21;;;;;;;5.65;1.02;;;6.80;1.00;;;;;;7370547;19;20098;-71
2024/02/23 01:50:52;;;;;;;2.28;0.82;;;6.80;1.00;;;;;;7369937;19;20083;-71
2024/02/23 01:53:25;;;;;;;5.30;0.80;;;6.80;1.00;;;;;;7364341;19;20026;-71
2024/02/23 01:55:57;;;;;;;2.40;0.57;;;6.80;1.00;;;;;;7368264;19;20014;-71
2024/02/23 01:58:27;;;;;;;3.03;0.63;;;6.90;1.00;;;;;;7370662;19;20594;-70
2024/02/23 02:00:57;;;;;;;2.95;0.60;;;6.90;1.00;;;;;;7368320;19;20568;-71
2024/02/23 02:03:28;;;;;;;3.90;0.80;;;6.90;1.00;;;;;;7368229;19;20022;-71
2024/02/23 02:06:00;;;;;;;3.47;0.70;;;6.90;1.00;;;;;;7365885;19;20010;-71
2024/02/23 02:08:33;;;;;;;3.33;0.77;;;6.80;1.00;;;;;;7369205;19;20010;-71
2024/02/23 02:11:04;;;;;;;3.10;0.80;;;6.80;1.00;;;;;;7365469;19;20032;-71
2024/02/23 02:13:34;;;;;;;2.70;0.60;;;6.80;1.00;;;;;;7367516;19;20014;-72
2024/02/23 02:16:04;;;;;;;2.08;0.60;;;6.80;1.00;;;;;;7366574;19;20014;-72
2024/02/23 02:18:34;;;;;;;4.47;1.02;;;6.80;1.00;;;;;;7370672;19;20017;-71
2024/02/23 02:21:05;;;;;;;3.42;0.65;;;6.60;1.00;;;;;;7369879;19;20018;-70
2024/02/23 02:23:38;;;;;;;1.90;0.85;;;6.70;1.00;;;;;;7369129;19;20020;-71
2024/02/23 02:26:08;;;;;;;1.45;0.30;;;6.50;1.00;;;;;;7365837;19;20014;-72
2024/02/23 02:28:38;;;;;;;1.40;0.50;;;6.50;1.00;;;;;;7370501;19;20006;-71
2024/02/23 02:31:09;;;;;;;2.50;0.40;;;6.50;1.00;;;;;;7369833;19;20018;-71
2024/02/23 02:33:39;;;;;;;1.00;0.52;;;6.50;1.00;;;;;;7364785;19;20015;-71
2024/02/23 02:36:09;;;;;;;1.63;0.70;;;6.40;1.00;;;;;;7367230;19;20022;-71
2024/02/23 02:38:42;;;;;;;2.22;0.50;;;6.40;1.00;;;;;;7370641;19;20419;-71
2024/02/23 02:41:12;;;;;;;2.22;0.60;;;6.30;1.00;;;;;;7365722;19;20024;-72
2024/02/23 02:43:42;;;;;;;1.40;0.40;;;6.30;1.00;;;;;;7367035;19;20355;-72
2024/02/23 02:46:12;;;;;;;4.00;0.50;;;6.20;1.00;;;;;;7365032;19;20688;-72
2024/02/23 02:48:42;;;;;;;2.80;0.52;;;6.20;1.00;;;;;;7368903;19;20006;-72
2024/02/23 02:51:13;;;;;;;2.17;0.70;;;6.20;1.00;;;;;;7366593;19;20018;-72
2024/02/23 02:53:45;;;;;;;4.15;1.00;;;6.20;1.00;;;;;;7368067;19;20014;-72
2024/02/23 02:56:15;;;;;;;2.55;0.60;;;6.20;1.00;;;;;;7366266;19;20015;-72
2024/02/23 02:58:46;;;;;;;1.65;0.50;;;6.10;1.00;;;;;;7368390;19;20011;-71
2024/02/23 03:01:16;;;;;;;2.47;0.60;;;6.20;1.00;;;;;;7368021;19;20019;-71
2024/02/23 03:03:46;;;;;;;2.50;0.47;;;6.10;1.00;;;;;;7365890;19;20751;-72
2024/02/23 03:06:16;;;;;;;3.50;0.50;;;6.10;1.00;;;;;;7364277;19;20594;-71
2024/02/23 03:08:48;;;;;;;4.75;0.60;;;6.10;1.00;;;;;;7368687;19;20030;-71
2024/02/23 03:11:18;;;;;;;2.00;0.45;;;6.20;1.00;;;;;;7368645;19;20014;-71
2024/02/23 03:13:49;;;;;;;0.80;0.40;;;6.10;1.00;;;;;;7365913;19;20014;-71
2024/02/23 03:16:19;;;;;;;2.47;0.82;;;6.10;1.00;;;;;;7364100;19;20106;-71
2024/02/23 03:18:50;;;;;;;1.85;0.70;;;6.10;1.00;;;;;;7367629;19;20017;-71
2024/02/23 03:21:23;;;;;;;2.13;0.68;;;6.10;1.00;;;;;;7368517;19;20014;-71
2024/02/23 03:23:56;;;;;;;4.15;0.98;;;6.10;1.00;;;;;;7365759;19;20248;-71
2024/02/23 03:26:26;;;;;;;3.95;0.80;;;6.10;1.00;;;;;;7364948;19;20076;-71
2024/02/23 03:28:56;;;;;;;3.20;0.60;;;6.00;1.00;;;;;;7367648;19;20351;-72
2024/02/23 03:31:26;;;;;;;2.45;0.50;;;6.10;1.00;;;;;;7369576;19;20090;-71
2024/02/23 03:33:56;;;;;;;1.25;0.63;;;6.10;1.00;;;;;;7373628;19;20432;-71
2024/02/23 03:36:26;;;;;;;2.20;0.60;;;6.10;1.00;;;;;;7371615;19;20007;-71
2024/02/23 03:38:59;;;;;;;2.63;0.60;;;6.10;1.00;;;;;;7373696;19;20018;-71
2024/02/23 03:41:29;;;;;;;1.73;0.70;;;6.10;1.00;;;;;;7374076;19;20020;-71
2024/02/23 03:43:57;;;;;;;1.85;0.80;;;6.10;1.00;;;;;;7371970;19;20019;-71
2024/02/23 03:46:27;;;;;;;3.13;0.60;;;6.10;1.00;;;;;;7372114;19;20028;-72
2024/02/23 03:48:57;;;;;;;3.03;0.73;;;6.20;1.00;;;;;;7374712;19;20031;-70
2024/02/23 03:51:27;;;;;;;2.15;0.65;;;6.20;1.00;;;;;;7373634;19;20028;-72
2024/02/23 03:54:00;;;;;;;1.88;0.57;;;6.20;1.00;;;;;;7372029;19;20021;-71
2024/02/23 03:56:30;;;;;;;2.25;0.60;;;6.20;1.00;;;;;;7371070;19;20020;-72
2024/02/23 03:59:00;;;;;;;1.38;0.52;;;6.20;1.00;;;;;;7374281;19;20022;-71
2024/02/23 04:01:30;;;;;;;2.53;0.50;;;6.20;1.00;;;;;;7369481;19;20392;-71
2024/02/23 04:04:00;;;;;;;1.33;0.30;;;6.20;1.00;;;;;;7372492;19;20098;-72
2024/02/23 04:06:30;;;;;;;1.23;0.40;;;6.20;1.00;;;;;;7369738;19;20011;-72
2024/02/23 04:09:04;;;;;;;1.02;0.50;;;6.20;1.00;;;;;;7372682;19;20078;-73
2024/02/23 04:11:35;;;;;;;;;;;6.20;1.00;;;;;;7373788;19;20031;-72
2024/02/23 04:14:05;;;;;;;3.03;0.70;;;6.20;1.00;;;;;;7373226;19;20313;-71
2024/02/23 04:16:35;;;;;;;2.72;0.30;;;6.10;1.00;;;;;;7371418;19;20025;-70
2024/02/23 04:19:05;;;;;;;1.15;0.40;;;6.00;1.00;;;;;;7373587;19;20018;-71
2024/02/23 04:21:36;;;;;;;2.63;0.60;;;6.10;1.00;;;;;;7372402;19;20082;-72
2024/02/23 04:24:09;;;;;;;1.50;0.65;;;6.10;1.00;;;;;;7370903;19;20045;-72
2024/02/23 04:26:39;;;;;;;3.63;0.70;;;6.00;1.00;;;;;;7370892;19;20014;-71
2024/02/23 04:29:09;;;;;;;3.67;0.70;;;6.00;1.00;;;;;;7372687;19;20014;-71
2024/02/23 04:31:40;;;;;;;2.60;0.40;;;6.00;1.00;;;;;;7368391;19;20017;-72
2024/02/23 04:34:10;;;;;;;2.58;0.70;;;5.90;1.00;;;;;;7371219;19;20492;-71
2024/02/23 04:36:40;;;;;;;3.50;0.50;;;5.90;1.00;;;;;;7371053;19;20015;-70
2024/02/23 04:39:12;;;;;;;1.80;0.40;;;5.90;1.00;;;;;;7372171;19;20014;-71
2024/02/23 04:41:43;;;;;;;2.28;0.68;;;5.90;1.00;;;;;;7370562;19;20014;-71
2024/02/23 04:44:13;;;;;;;1.30;0.75;;;5.90;1.00;;;;;;7368458;19;20035;-70
2024/02/23 04:46:43;;;;;;;1.95;0.68;;;5.90;1.00;;;;;;7369136;19;20093;-71
2024/02/23 04:49:14;;;;;;;2.35;0.52;;;5.90;1.00;;;;;;7372301;19;20018;-71
2024/02/23 04:51:44;;;;;;;3.17;0.70;;;5.80;1.00;;;;;;7370620;19;20061;-70
2024/02/23 04:54:17;;;;;;;4.88;0.60;;;5.80;1.00;;;;;;7369902;19;20023;-70
2024/02/23 04:56:47;;;;;;;1.73;0.40;;;5.80;1.00;;;;;;7365125;19;20758;-71
2024/02/23 04:59:17;;;;;;;2.72;0.70;;;5.80;1.00;;;;;;7365157;19;20017;-72
2024/02/23 05:01:47;;;;;;;4.30;1.00;;;5.90;1.00;;;;;;7368115;19;20534;-70
2024/02/23 05:04:17;;;;;;;2.35;0.50;;;5.70;1.00;;;;;;7368596;19;20086;-71
2024/02/23 05:06:47;;;;;;;1.65;0.43;;;5.80;1.00;;;;;;7370530;19;20317;-71
2024/02/23 05:09:20;;;;;;;2.42;0.52;;;5.70;1.00;;;;;;7372403;19;20010;-70
2024/02/23 05:11:50;;;;;;;1.83;0.57;;;5.70;1.00;;;;;;7367124;19;20021;-72
2024/02/23 05:14:20;;;;;;;1.95;0.60;;;5.60;1.00;;;;;;7366378;19;20022;-71
2024/02/23 05:16:50;;;;;;;2.00;0.40;;;5.60;1.00;;;;;;7368971;19;20013;-71
2024/02/23 05:19:20;;;;;;;2.78;0.70;;;5.50;1.00;;;;;;7370930;19;20014;-71
2024/02/23 05:21:51;;;;;;;0.70;0.40;;;5.50;1.00;;;;;;7369906;19;20060;-70
2024/02/23 05:24:23;;;;;;;2.00;0.52;;;5.50;1.00;;;;;;7371895;19;20093;-72
2024/02/23 05:26:53;;;;;;;1.38;0.50;;;5.50;1.00;;;;;;7363341;19;20401;-71
2024/02/23 05:29:23;;;;;;;1.52;0.70;;;5.50;1.00;;;;;;7368922;19;20487;-72
2024/02/23 05:31:55;;;;;;;4.88;0.80;;;5.40;1.00;;;;;;7371226;19;20017;-72
2024/02/23 05:34:25;;;;;;;3.63;0.63;;;5.50;1.00;;;;;;7364879;19;20010;-72
2024/02/23 05:36:55;;;;;;;3.13;0.80;;;5.50;1.00;;;;;;7368063;19;20399;-72
2024/02/23 05:39:29;;;;;;;5.28;0.73;;;5.40;1.00;;;;;;7374472;19;20014;-72
2024/02/23 05:41:59;;;;;;;2.63;0.77;;;5.40;1.00;;;;;;7367421;19;20356;-71
2024/02/23 05:44:30;;;;;;;3.75;0.75;;;5.40;1.00;;;;;;7366834;19;20343;-72
2024/02/23 05:47:00;;;;;;;4.40;0.70;;;5.40;1.00;;;;;;7369031;19;20015;-73
2024/02/23 05:49:30;;;;;;;3.75;0.75;;;5.40;1.00;;;;;;7374297;19;20087;-71
2024/02/23 05:52:00;;;;;;;2.78;0.75;;;5.40;1.00;;;;;;7368315;19;20010;-71
2024/02/23 05:54:33;;;;;;;2.97;0.90;;;5.40;1.00;;;;;;7368054;19;20107;-71
2024/02/23 05:57:03;;;;;;;2.22;1.15;;;5.40;1.00;;;;;;7370525;19;20014;-73
2024/02/23 05:59:33;;;;;;;3.42;0.95;;;5.50;1.00;;;;;;7368675;19;20022;-73
2024/02/23 06:02:03;;;;;;;3.72;0.93;;;5.50;1.00;;;;;;7371502;19;20018;-70
2024/02/23 06:04:34;;;;;;;2.33;1.52;;;5.50;1.00;;;;;;7366604;19;20021;-69
2024/02/23 06:07:04;;;;;;;2.40;0.93;;;5.50;1.00;;;;;;7365985;19;20014;-70
2024/02/23 06:09:37;;;;;;;3.80;0.63;;;5.40;1.00;;;;;;7366698;19;20047;-71
2024/02/23 06:12:08;;;;;;;3.15;1.00;;;5.30;1.00;;;;;;7367427;19;20014;-71
2024/02/23 06:14:39;;;;;;;5.07;0.85;;;5.40;1.00;;;;;;7366252;19;20423;-72
2024/02/23 06:17:09;;;;;;;2.70;0.90;;;5.30;1.00;;;;;;7369474;19;20039;-72
2024/02/23 06:19:39;;;;;;;4.25;1.27;;;5.30;1.00;;;;;;7369078;19;20014;-72
2024/02/23 06:22:09;;;;;;;3.67;0.73;;;5.30;1.00;;;;;;7369493;19;20506;-72
2024/02/23 06:24:42;;;;;;;2.42;0.80;;;5.40;1.00;;;;;;7366415;19;20021;-72
2024/02/23 06:27:12;;;;;;;3.50;1.00;;;5.40;1.00;;;;;;7368905;19;20035;-71
2024/02/23 06:29:42;;;;;;;3.95;0.70;;;5.30;1.00;;;;;;7366684;19;20489;-71
2024/02/23 06:32:12;;;;;;;4.60;0.70;;;5.40;1.00;;;;;;7368296;19;20030;-71
2024/02/23 06:34:42;;;;;;;2.30;0.60;;;5.30;1.00;;;;;;7365286;19;20029;-71
2024/02/23 06:37:13;;;;;;;5.07;1.05;;;5.30;1.00;;;;;;7366884;19;20010;-70
2024/02/23 06:39:51;;;;;;;2.20;0.80;;;5.20;1.00;;;;;;7368490;19;20048;-71
2024/02/23 06:42:21;;;;;;;5.53;1.00;;;5.20;1.00;;;;;;7367158;19;20491;-70
2024/02/23 06:44:51;;;;;;;1.27;0.45;;;5.20;1.00;;;;;;7363165;19;20730;-70
2024/02/23 06:47:22;;;;;;;3.35;1.00;;;5.20;1.00;;;;;;7368489;19;20010;-71
2024/02/23 06:49:52;;;;;;;3.20;0.75;;;5.20;1.00;;;;;;7369199;19;20899;-72
2024/02/23 06:52:23;;;;;;;2.28;0.73;;;5.20;1.00;;;;;;7368643;19;20014;-72
2024/02/23 06:54:56;;;;;;;1.80;0.57;;;5.20;1.00;;;;;;7365559;19;20021;-72
2024/02/23 06:57:26;;;;;;;6.80;1.15;;;5.30;1.00;;;;;;7366763;19;20347;-71
2024/02/23 06:59:56;;;;;;;2.60;1.02;;;5.40;1.00;;;;;;7368693;19;20022;-72
2024/02/23 07:02:26;;;;;;;4.63;1.10;;;5.30;1.00;;;;;;7368148;19;20340;-71
2024/02/23 07:04:58;;;;;;;3.72;1.40;;;5.40;1.00;;;;;;7364210;19;20021;-71
2024/02/23 07:07:28;;;;;;;4.50;1.00;;;5.40;1.00;;;;;;7371691;19;20063;-71
2024/02/23 07:10:01;;;;;;;5.25;1.70;;;5.40;1.00;;;;;;7375139;19;20026;-71
2024/02/23 07:12:31;;;;;;;5.82;1.60;;;5.30;1.00;;;;;;7375743;19;20075;-71
2024/02/23 07:15:01;;;;;;;6.97;1.15;;;5.30;1.00;;;;;;7370539;19;20022;-71
2024/02/23 07:17:32;;;;;;;5.43;1.13;;;5.40;1.00;;;;;;7374625;19;20374;-71
2024/02/23 07:20:05;;;;;;;3.58;1.05;;;5.40;1.00;;;;;;7373853;19;20014;-71
2024/02/23 07:22:36;;;;;;;6.00;1.30;;;5.50;1.00;;;;;;7373201;19;20017;-71
2024/02/23 07:25:10;;;;;;;4.70;1.17;;;5.50;1.00;;;;;;7369507;19;20018;-71
2024/02/23 07:27:40;;;;;;;4.35;1.48;;;5.50;1.00;;;;;;7372710;19;20495;-71
2024/02/23 07:30:11;;;;;;;2.75;1.50;;;5.60;1.00;;;;;;7373756;19;20010;-72
2024/02/23 07:32:41;;;;;;;6.18;2.10;;;5.60;1.00;;;;;;7371427;19;20016;-71
2024/02/23 07:35:13;;;;;;;5.57;1.52;;;5.60;1.00;;;;;;7370180;19;20018;-72
2024/02/23 07:37:43;;;;;;;4.03;1.25;;;5.70;1.00;;;;;;7372779;19;20083;-72
2024/02/23 07:40:16;;;;;;;3.25;1.00;;;5.70;1.00;;;;;;7373621;19;20037;-72
2024/02/23 07:42:51;;;;;;;5.05;1.52;;;5.80;1.00;;;;;;7372350;19;20017;-72
2024/02/23 07:45:21;;;;;;;3.80;1.40;;;5.90;1.00;;;;;;7367099;19;20014;-71
2024/02/23 07:47:51;;;;;;;2.50;1.30;;;5.90;1.00;;;;;;7373806;19;20018;-70
2024/02/23 07:50:21;;;;;;;4.88;1.35;;;5.90;1.00;;;;;;7370244;19;20060;-70
2024/02/23 07:52:54;;;;;;;6.95;1.60;;;5.90;1.00;;;;;;7373707;19;20023;-70
2024/02/23 07:55:29;;;;;;;5.53;1.73;;;6.00;1.00;;;;;;7366459;19;20014;-70
2024/02/23 07:58:01;;;;;;;2.63;1.00;;;6.10;1.00;;;;;;7371928;19;20637;-72
2024/02/23 08:00:32;;;;;;;5.03;1.25;;;6.20;1.00;;;;;;7369615;19;20011;-73
2024/02/23 08:03:02;;;;;;;3.22;1.58;;;6.10;1.00;;;;;;7370248;19;20473;-72
2024/02/23 08:05:32;;;;;;;2.28;1.00;;;6.10;1.00;;;;;;7366366;19;20015;-71
2024/02/23 08:08:02;;;;;;;2.33;0.95;;;6.10;1.00;;;;;;7368914;19;20010;-72
2024/02/23 08:10:35;;;;;;;1.42;0.73;;;5.90;1.00;;;;;;7371144;19;20341;-72
2024/02/23 08:13:06;;;;;;;3.47;1.52;;;6.00;1.00;;;;;;7372451;19;20014;-71
2024/02/23 08:15:37;;;;;;;6.10;1.20;;;6.10;1.00;;;;;;7370290;19;20007;-72
2024/02/23 08:18:08;;;;;;;1.63;0.90;;;6.00;1.00;;;;;;7372043;19;20011;-71
2024/02/23 08:20:38;;;;;;;3.80;1.10;;;6.00;1.00;;;;;;7371226;19;20014;-71
2024/02/23 08:23:09;;;;;;;2.72;0.80;;;6.00;1.00;;;;;;7372671;19;20021;-71
2024/02/23 08:25:41;;;;;;;4.00;0.98;;;6.00;1.00;;;;;;7371801;19;20053;-71
2024/02/23 08:28:11;;;;;;;3.30;1.15;;;5.90;1.00;;;;;;7371674;19;20011;-71
2024/02/23 08:30:41;;;;;;;2.45;0.93;;;5.90;1.00;;;;;;7370943;19;20483;-71
2024/02/23 08:33:11;;;;;;;4.20;1.20;;;6.00;1.00;;;;;;7371717;19;20047;-72
2024/02/23 08:35:42;;;;;;;3.42;0.98;;;6.00;1.00;;;;;;7368840;19;20049;-72
2024/02/23 08:38:13;;;;;;;4.25;0.90;;;6.10;1.00;;;;;;7373834;19;20018;-72
2024/02/23 08:40:46;;;;;;;2.30;0.90;;;6.10;1.00;;;;;;7371628;19;20031;-71
2024/02/23 08:43:16;;;;;;;2.35;0.90;;;6.10;1.00;;;;;;7371410;19;20010;-71
2024/02/23 08:45:46;;;;;;;2.42;1.38;;;6.00;1.00;;;;;;7368562;19;20019;-71
2024/02/23 08:48:18;;;;;;;5.13;1.00;;;6.00;1.00;;;;;;7371508;19;20014;-71
2024/02/23 08:50:50;;;;;;;8.13;1.10;;;6.00;1.00;;;;;;7370067;19;20018;-71
2024/02/23 08:53:22;;;;;;;3.25;0.98;;;6.10;1.00;;;;;;7370364;19;20086;-71
2024/02/23 08:55:55;;;;;;;6.35;1.60;;;6.00;1.00;;;;;;7369554;19;20025;-72
2024/02/23 08:58:25;;;;;;;4.80;2.30;;;6.10;1.00;;;;;;7371487;19;20069;-72
2024/02/23 09:00:55;;;;;;;3.92;1.75;;;6.30;1.00;;;;;;7372339;19;20026;-71
2024/02/23 09:03:25;;;;;;;4.53;1.70;;;6.40;1.00;;;;;;7370484;19;20022;-71
2024/02/23 09:05:55;;;;;;;4.55;2.08;;;6.30;1.00;;;;;;7367969;19;20022;-71
2024/02/23 09:08:26;;;;;;;3.90;1.70;;;6.40;1.00;;;;;;7371858;19;20011;-72
2024/02/23 09:10:59;;;;;;;6.63;1.95;;;6.30;1.00;;;;;;7371964;19;20372;-72
2024/02/23 09:13:30;;;;;;;2.05;1.52;;;6.30;1.00;;;;;;7370648;19;20010;-71
2024/02/23 09:16:00;;;;;;;3.38;1.63;;;6.40;1.00;;;;;;7370980;19;20018;-70
2024/02/23 09:18:30;;;;;;;4.38;1.48;;;6.50;1.00;;;;;;7370652;19;20078;-70
2024/02/23 09:21:02;;;;;;;3.03;1.35;;;6.40;1.00;;;;;;7370834;19;20290;-71
2024/02/23 09:23:32;;;;;;;8.02;1.50;;;6.50;1.00;;;;;;7369077;19;20073;-72
2024/02/23 09:26:11;;;;;;;5.80;1.40;;;6.60;1.00;;;;;;7368551;19;20014;-72
2024/02/23 09:28:44;;;;;;;7.25;1.85;;;6.50;1.00;;;;;;7365237;19;20039;-72
2024/02/23 09:31:15;;;;;;;3.90;1.30;;;6.50;1.00;;;;;;7371025;19;20017;-71
2024/02/23 09:33:45;;;;;;;4.00;1.00;;;6.50;1.00;;;;;;7370485;19;20035;-72
2024/02/23 09:36:16;;;;;;;2.38;1.02;;;6.50;1.00;;;;;;7368151;19;20010;-72
2024/02/23 09:38:48;;;;;;;2.25;0.93;;;6.60;1.00;;;;;;7370365;19;20016;-72
2024/02/23 09:41:23;;;;;;;3.88;0.90;;;6.70;1.00;;;;;;7370643;19;20015;-71
2024/02/23 09:43:53;;;;;;;4.82;0.73;;;6.80;1.00;;;;;;7367401;19;20498;-72
2024/02/23 09:46:24;;;;;;;4.53;0.65;;;6.70;1.00;;;;;;7369431;19;20010;-70
2024/02/23 09:48:54;;;;;;;5.47;0.98;;;6.90;1.00;;;;;;7368492;19;20016;-70
2024/02/23 09:51:25;;;;;;;3.95;1.05;;;6.90;1.00;;;;;;7370159;19;20074;-71
2024/02/23 09:53:57;;;;;;;4.80;1.50;;;7.10;1.00;;;;;;7365814;19;20006;-71
2024/02/23 09:56:31;;;;;;;4.25;1.20;;;7.30;1.00;;;;;;7369668;19;20398;-72
2024/02/23 09:59:05;;;;;;;2.35;0.95;;;7.40;1.00;;;;;;7368207;19;20015;-72
2024/02/23 10:01:36;;;;;;;4.18;1.08;;;7.50;1.00;;;;;;7370999;19;20037;-72
2024/02/23 10:04:07;;;;;;;2.63;1.00;;;7.50;1.00;;;;;;7367136;19;20093;-71
2024/02/23 10:06:37;;;;;;;4.05;1.15;;;7.50;1.00;;;;;;7368137;19;20562;-71
2024/02/23 10:09:08;;;;;;;3.95;1.00;;;7.40;1.00;;;;;;7370511;19;20523;-71
2024/02/23 10:11:41;;;;;;;5.57;1.13;;;7.60;1.00;;;;;;7369301;19;20022;-70
2024/02/23 10:14:11;;;;;;;5.93;0.98;;;7.60;1.00;;;;;;7366428;19;20022;-72
2024/02/23 10:16:41;;;;;;;4.72;1.08;;;7.70;1.00;;;;;;7369011;19;20081;-70
2024/02/23 10:19:11;;;;;;;4.47;1.08;;;7.90;1.00;;;;;;7366596;19;20121;-72
2024/02/23 10:21:42;;;;;;;2.83;1.10;;;7.80;1.00;;;;;;7369385;19;20010;-71
2024/02/23 10:24:12;;;;;;;3.50;1.00;;;7.90;1.00;;;;;;7367145;19;20558;-72
2024/02/23 10:26:45;;;;;;;3.45;0.70;;;8.00;1.00;;;;;;7368779;19;20014;-72
2024/02/23 10:29:15;;;;;;;3.80;1.75;;;7.90;1.00;;;;;;7368137;19;20027;-71
2024/02/23 10:31:50;;;;;;;4.63;1.35;;;7.90;1.00;;;;;;7368253;19;20022;-70
2024/02/23 10:34:22;;;;;;;5.15;1.63;;;7.90;1.00;;;;;;7366354;19;20014;-73
2024/02/23 10:36:54;;;;;;;3.75;1.13;;;7.90;1.00;;;;;;7366839;19;20111;-71
2024/02/23 10:39:26;;;;;;;5.88;2.28;;;8.10;1.00;;;;;;7368932;19;20010;-72
2024/02/23 10:42:03;;;;;;;5.20;1.38;;;8.20;1.00;;;;;;7370721;19;20011;-72
2024/02/23 10:44:34;;;;;;;5.50;1.40;;;7.90;1.00;;;;;;7372428;19;20024;-72
2024/02/23 10:47:04;;;;;;;3.72;1.23;;;8.10;1.00;;;;;;7372679;19;20011;-71
2024/02/23 10:49:36;;;;;;;7.70;1.38;;;8.30;1.00;;;;;;7376961;19;20007;-71
2024/02/23 10:52:09;;;;;;;3.83;1.55;;;8.50;1.00;;;;;;7373336;19;20604;-71
2024/02/23 10:54:39;;;;;;;4.85;1.00;;;8.60;1.00;;;;;;7370645;19;20022;-72
2024/02/23 10:57:13;;;;;;;4.82;1.83;;;8.60;1.00;;;;;;7373804;19;20035;-71
2024/02/23 10:59:48;;;;;;;6.22;1.75;;;8.90;1.00;;;;;;7374787;19;20010;-71
2024/02/23 11:02:21;;;;;;;7.18;1.60;;;9.10;1.00;;;;;;7373847;19;20075;-71
2024/02/23 11:04:53;;;;;;;4.43;1.52;;;8.90;1.00;;;;;;7370150;19;20022;-72
2024/02/23 11:07:25;;;;;;;3.75;1.30;;;9.00;1.00;;;;;;7374901;19;20022;-71
2024/02/23 11:09:55;;;;;;;5.20;1.40;;;8.70;1.00;;;;;;7375442;19;20015;-71
2024/02/23 11:12:31;;;;;;;3.92;1.83;;;8.70;1.00;;;;;;7373571;19;20072;-71
2024/02/23 11:15:02;;;;;;;5.22;1.30;;;9.10;1.00;;;;;;7369030;19;20013;-71
2024/02/23 11:17:35;;;;;;;3.97;1.50;;;9.20;1.00;;;;;;7373512;19;20036;-71
2024/02/23 11:20:06;;;;;;;3.83;1.30;;;9.00;1.00;;;;;;7369649;19;20435;-72
2024/02/23 11:22:37;;;;;;;7.50;2.25;;;9.20;1.00;;;;;;7369820;19;20021;-71
2024/02/23 11:25:10;;;;;;;6.72;1.55;;;9.40;1.00;;;;;;7368050;19;20018;-71
2024/02/23 11:27:43;;;;;;;3.78;1.65;;;8.90;1.00;;;;;;7371179;19;20010;-70
2024/02/23 11:30:14;;;;;;;3.85;1.42;;;9.00;1.00;;;;;;7371783;19;20006;-72
2024/02/23 11:32:47;;;;;;;3.45;1.10;;;9.10;1.00;;;;;;7371388;19;20463;-71
2024/02/23 11:35:19;;;;;;;5.72;1.73;;;8.70;1.00;;;;;;7370420;19;20361;-72
2024/02/23 11:37:52;;;;;;;3.55;1.23;;;8.80;1.00;;;;;;7372375;19;20348;-72
2024/02/23 11:40:22;;;;;;;4.47;1.27;;;9.10;1.00;;;;;;7372174;19;20039;-71
2024/02/23 11:42:56;;;;;;;3.45;1.17;;;9.10;1.00;;;;;;7372560;19;20542;-71
2024/02/23 11:45:27;;;;;;;2.85;1.25;;;8.80;1.00;;;;;;7370864;19;20479;-72
2024/02/23 11:47:59;;;;;;;4.70;1.83;;;8.90;1.00;;;;;;7371563;19;20011;-72
2024/02/23 11:50:29;;;;;;;5.15;1.63;;;8.80;1.00;;;;;;7373723;19;20011;-72
2024/02/23 11:53:00;;;;;;;3.13;1.42;;;9.00;1.00;;;;;;7370184;19;20021;-72
2024/02/23 11:55:32;;;;;;;5.20;1.80;;;9.00;1.00;;;;;;7370210;19;20337;-71
2024/02/23 11:58:06;;;;;;;2.97;1.40;;;9.10;1.00;;;;;;7374199;19;20022;-71
2024/02/23 12:00:46;;;;;;;3.83;1.52;;;9.00;1.00;;;;;;7367473;19;20013;-71
2024/02/23 12:03:17;;;;;;;4.68;1.20;;;9.00;1.00;;;;;;7370644;19;20649;-71
2024/02/23 12:05:47;;;;;;;5.68;1.33;;;9.00;1.00;;;;;;7367313;19;20025;-71
2024/02/23 12:08:17;;;;;;;4.53;1.80;;;9.10;1.00;;;;;;7371995;19;20011;-71
2024/02/23 12:10:48;;;;;;;7.18;1.70;;;9.00;1.00;;;;;;7371531;19;20070;-71
2024/02/23 12:13:20;;;;;;;5.57;1.50;;;9.10;1.00;;;;;;7370341;19;20527;-71
2024/02/23 12:15:50;;;;;;;6.45;1.45;;;9.00;1.00;;;;;;7368975;19;20038;-71
2024/02/23 12:18:23;;;;;;;4.22;1.73;;;8.90;1.00;;;;;;7372272;19;20481;-71
2024/02/23 12:20:53;;;;;;;6.57;2.40;;;9.00;1.00;;;;;;7371668;19;20377;-72
2024/02/23 12:23:23;;;;;;;2.70;1.38;;;9.00;1.00;;;;;;7370391;19;20015;-71
2024/02/23 12:25:59;;;;;;;7.75;1.30;;;8.90;1.00;;;;;;7369188;19;20080;-71
2024/02/23 12:28:32;;;;;;;5.22;2.28;;;9.00;1.00;;;;;;7370520;19;20027;-71
2024/02/23 12:31:02;;;;;;;5.60;1.60;;;9.10;1.00;;;;;;7370647;19;20006;-72
2024/02/23 12:33:34;;;;;;;4.90;1.70;;;9.00;1.00;;;;;;7368728;19;20019;-71
2024/02/23 12:36:06;;;;;;;5.85;1.25;;;9.10;1.00;;;;;;7368819;19;20010;-70
2024/02/23 12:38:37;;;;;;;5.22;1.40;;;8.80;1.00;;;;;;7371136;19;20081;-70
2024/02/23 12:41:08;;;;;;;5.47;1.80;;;8.80;1.00;;;;;;7372466;19;20597;-70
2024/02/23 12:43:40;;;;;;;4.47;1.33;;;8.90;1.00;;;;;;7368622;19;20855;-72
2024/02/23 12:46:14;;;;;;;8.85;1.58;;;8.90;1.00;;;;;;7370372;19;20007;-71
2024/02/23 12:48:44;;;;;;;13.48;1.70;;;9.00;1.00;;;;;;7369291;19;20015;-72
2024/02/23 12:51:15;;;;;;;33.30;3.42;;;9.00;1.00;;;;;;7371942;19;20010;-71
2024/02/23 12:53:45;;;;;;;10.63;2.25;;;9.00;1.00;;;;;;7368303;19;20021;-71
2024/02/23 12:56:17;;;;;;;16.48;2.80;;;9.00;1.00;;;;;;7369123;19;20019;-71
2024/02/23 12:58:51;;;;;;;37.58;4.82;;;9.20;1.00;;;;;;7369467;19;20030;-70
2024/02/23 13:01:21;;;;;;;7.10;2.03;;;9.10;1.00;;;;;;7369684;19;20011;-71
2024/02/23 13:03:52;;;;;;;5.35;1.85;;;9.00;1.00;;;;;;7363986;19;20030;-70
2024/02/23 13:06:22;;;;;;;6.22;1.88;;;8.90;1.00;;;;;;7370766;19;20463;-71
2024/02/23 13:08:52;;;;;;;9.27;2.50;;;8.80;1.00;;;;;;7368024;19;20010;-71
2024/02/23 13:11:22;;;;;;;5.70;4.03;;;9.10;1.00;;;;;;7370261;19;20015;-71
2024/02/23 13:13:55;;;;;;;6.80;1.80;;;9.00;1.00;;;;;;7366252;19;20744;-72
2024/02/23 13:16:25;;;;;;;6.13;2.10;;;9.00;1.00;;;;;;7371046;19;20006;-71
2024/02/23 13:18:55;;;;;;;8.13;1.95;;;9.00;1.00;;;;;;7372972;19;20007;-71
2024/02/23 13:21:25;;;;;;;10.02;1.70;;;9.00;1.00;;;;;;7371175;19;20041;-71
2024/02/23 13:23:55;;;;;;;5.03;1.92;;;9.20;1.00;;;;;;7366663;19;20016;-71
2024/02/23 13:26:25;;;;;;;6.50;2.00;;;9.30;1.00;;;;;;7369832;19;20010;-71